createdAt,value
2023-05-08T00:00:59.166Z,15.18
2023-05-08T00:03:27.465Z,15.18
2023-05-08T00:05:57.385Z,15.16
2023-05-08T00:08:25.337Z,15.14
2023-05-08T00:10:54.630Z,15.15
2023-05-08T00:13:23.881Z,15.19
2023-05-08T00:15:51.974Z,15.17
2023-05-08T00:18:20.165Z,15.23
2023-05-08T00:20:47.895Z,15.19
2023-05-08T00:23:15.843Z,15.21
2023-05-08T00:25:43.664Z,15.19
2023-05-08T00:28:13.493Z,15.17
2023-05-08T00:30:42.563Z,15.20
2023-05-08T00:33:12.253Z,15.21
2023-05-08T00:35:41.071Z,15.26
2023-05-08T00:38:08.885Z,15.26
2023-05-08T00:40:36.861Z,15.29
2023-05-08T00:43:04.713Z,15.32
2023-05-08T00:45:38.708Z,15.34
2023-05-08T00:48:07.449Z,15.33
2023-05-08T00:50:36.492Z,15.32
2023-05-08T00:53:05.584Z,15.35
2023-05-08T00:55:34.586Z,15.34
2023-05-08T00:58:03.129Z,15.30
2023-05-08T01:00:32.626Z,15.35
2023-05-08T01:03:02.626Z,15.32
2023-05-08T01:05:31.110Z,15.30
2023-05-08T01:07:59.558Z,15.32
2023-05-08T01:10:37.108Z,15.32
2023-05-08T01:13:13.362Z,15.31
2023-05-08T01:15:48.890Z,15.30
2023-05-08T01:18:24.143Z,15.28
2023-05-08T01:20:58.136Z,15.29
2023-05-08T01:24:23.005Z,15.27
2023-05-08T01:27:26.466Z,15.28
2023-05-08T01:30:26.943Z,15.25
2023-05-08T01:33:00.505Z,15.26
2023-05-08T01:35:33.063Z,15.27
2023-05-08T01:38:07.432Z,15.25
2023-05-08T01:40:41.827Z,15.19
2023-05-08T01:43:19.809Z,15.24
2023-05-08T01:45:50.909Z,15.28
2023-05-08T01:49:21.489Z,15.28
2023-05-08T01:51:59.997Z,15.21
2023-05-08T01:54:34.910Z,15.14
2023-05-08T01:57:05.186Z,15.05
2023-05-08T01:59:34.811Z,14.97
2023-05-08T02:02:04.948Z,14.91
2023-05-08T02:04:34.394Z,14.90
2023-05-08T02:07:04.707Z,14.83
2023-05-08T02:09:33.345Z,14.90
2023-05-08T02:12:02.872Z,14.75
2023-05-08T02:14:31.983Z,14.72
2023-05-08T02:17:02.910Z,14.67
2023-05-08T02:19:32.301Z,14.63
2023-05-08T02:22:01.596Z,14.66
2023-05-08T02:24:33.181Z,14.69
2023-05-08T02:27:01.735Z,14.68
2023-05-08T02:29:31.083Z,14.71
2023-05-08T02:32:00.821Z,14.58
2023-05-08T02:34:31.480Z,14.59
2023-05-08T02:37:01.093Z,14.56
2023-05-08T02:39:33.401Z,14.53
2023-05-08T02:42:02.381Z,14.60
2023-05-08T02:44:30.640Z,14.53
2023-05-08T02:47:07.325Z,14.46
2023-05-08T02:49:44.626Z,14.53
2023-05-08T02:52:18.177Z,14.44
2023-05-08T02:54:57.337Z,14.34
2023-05-08T02:57:34.637Z,14.36
2023-05-08T03:00:06.297Z,14.37
2023-05-08T03:02:39.089Z,14.37
2023-05-08T03:05:17.289Z,14.35
2023-05-08T03:07:48.497Z,14.35
2023-05-08T03:10:20.639Z,14.31
2023-05-08T03:12:53.970Z,14.31
2023-05-08T03:15:27.543Z,14.24
2023-05-08T03:17:59.512Z,14.32
2023-05-08T03:20:32.959Z,14.28
2023-05-08T03:23:03.946Z,14.25
2023-05-08T03:25:35.333Z,14.19
2023-05-08T03:28:06.194Z,14.24
2023-05-08T03:30:37.719Z,14.21
2023-05-08T03:33:10.794Z,14.35
2023-05-08T03:35:40.375Z,14.23
2023-05-08T03:38:10.431Z,14.13
2023-05-08T03:40:42.433Z,14.10
2023-05-08T03:43:13.961Z,14.12
2023-05-08T03:45:41.925Z,14.08
2023-05-08T03:48:11.373Z,14.12
2023-05-08T03:50:39.907Z,14.08
2023-05-08T03:53:12.767Z,14.12
2023-05-08T03:55:41.996Z,14.12
2023-05-08T03:58:19.256Z,14.13
2023-05-08T04:00:59.135Z,14.10
2023-05-08T04:03:39.737Z,14.05
2023-05-08T04:06:13.977Z,14.08
2023-05-08T04:08:47.957Z,14.07
2023-05-08T04:11:26.797Z,14.02
2023-05-08T04:14:01.588Z,14.02
2023-05-08T04:16:36.593Z,14.14
2023-05-08T04:19:11.526Z,14.08
2023-05-08T04:21:43.803Z,14.03
2023-05-08T04:24:16.015Z,14.03
2023-05-08T04:26:47.245Z,13.98
2023-05-08T04:29:17.156Z,13.98
2023-05-08T04:31:45.725Z,13.88
2023-05-08T04:34:14.335Z,13.84
2023-05-08T04:36:42.569Z,13.95
2023-05-08T04:39:10.815Z,13.97
2023-05-08T04:41:38.726Z,13.90
2023-05-08T04:44:08.929Z,13.94
2023-05-08T04:46:36.812Z,13.92
2023-05-08T04:49:04.986Z,13.84
2023-05-08T04:51:33.152Z,13.86
2023-05-08T04:54:01.117Z,13.89
2023-05-08T04:56:29.986Z,13.86
2023-05-08T04:58:57.854Z,14.07
2023-05-08T05:01:27.072Z,13.92
2023-05-08T05:03:55.959Z,13.85
2023-05-08T05:06:24.212Z,13.85
2023-05-08T05:08:52.039Z,13.92
2023-05-08T05:11:19.981Z,13.84
2023-05-08T05:13:48.509Z,13.80
2023-05-08T05:16:16.510Z,13.76
2023-05-08T05:18:45.925Z,13.79
2023-05-08T05:21:13.997Z,13.69
2023-05-08T05:23:42.076Z,13.70
2023-05-08T05:26:09.805Z,13.93
2023-05-08T05:28:38.133Z,13.79
2023-05-08T05:31:06.627Z,13.78
2023-05-08T05:33:36.760Z,13.77
2023-05-08T05:36:06.600Z,13.70
2023-05-08T05:38:34.935Z,13.78
2023-05-08T05:41:02.640Z,13.76
2023-05-08T05:43:30.692Z,13.77
2023-05-08T05:46:05.014Z,13.80
2023-05-08T05:48:33.290Z,13.76
2023-05-08T05:51:01.912Z,13.76
2023-05-08T05:53:32.635Z,13.90
2023-05-08T05:56:00.760Z,13.88
2023-05-08T05:58:29.518Z,13.90
2023-05-08T06:01:00.977Z,13.88
2023-05-08T06:03:29.276Z,13.89
2023-05-08T06:05:57.303Z,13.88
2023-05-08T06:08:27.959Z,13.83
2023-05-08T06:11:02.439Z,13.86
2023-05-08T06:13:33.133Z,13.91
2023-05-08T06:16:11.779Z,13.97
2023-05-08T06:18:41.360Z,13.97
2023-05-08T06:21:13.082Z,14.02
2023-05-08T06:23:42.644Z,14.01
2023-05-08T06:26:12.525Z,13.99
2023-05-08T06:28:40.448Z,14.00
2023-05-08T06:31:08.854Z,14.10
2023-05-08T06:33:36.854Z,14.01
2023-05-08T06:36:06.142Z,14.03
2023-05-08T06:38:34.124Z,13.94
2023-05-08T06:41:02.003Z,13.89
2023-05-08T06:43:31.721Z,13.85
2023-05-08T06:45:59.452Z,14.07
2023-05-08T06:48:29.158Z,14.06
2023-05-08T06:50:57.058Z,13.95
2023-05-08T06:53:25.356Z,13.97
2023-05-08T06:55:53.126Z,13.99
2023-05-08T06:58:20.908Z,14.05
2023-05-08T07:00:50.432Z,13.99
2023-05-08T07:03:18.569Z,13.95
2023-05-08T07:05:46.516Z,14.06
2023-05-08T07:08:14.750Z,14.07
2023-05-08T07:10:43.194Z,14.29
2023-05-08T07:13:11.929Z,14.34
2023-05-08T07:15:40.126Z,14.37
2023-05-08T07:18:09.342Z,14.50
2023-05-08T07:20:37.143Z,14.48
2023-05-08T07:23:04.951Z,14.48
2023-05-08T07:25:32.715Z,14.50
2023-05-08T07:28:01.482Z,14.49
2023-05-08T07:30:29.912Z,14.60
2023-05-08T07:32:57.799Z,14.68
2023-05-08T07:35:26.999Z,14.71
2023-05-08T07:37:54.972Z,14.95
2023-05-08T07:40:22.730Z,14.89
2023-05-08T07:42:50.544Z,14.94
2023-05-08T07:45:18.893Z,15.07
2023-05-08T07:47:50.407Z,15.24
2023-05-08T07:50:18.534Z,15.27
2023-05-08T07:52:50.087Z,15.17
2023-05-08T07:55:18.987Z,15.20
2023-05-08T07:57:47.349Z,15.15
2023-05-08T08:00:17.235Z,15.32
2023-05-08T08:02:45.855Z,15.17
2023-05-08T08:05:14.185Z,15.08
2023-05-08T08:07:42.029Z,14.97
2023-05-08T08:10:11.833Z,15.04
2023-05-08T08:12:39.629Z,15.08
2023-05-08T08:15:09.251Z,15.04
2023-05-08T08:17:37.787Z,14.90
2023-05-08T08:20:06.836Z,14.93
2023-05-08T08:22:34.536Z,14.98
2023-05-08T08:25:03.144Z,15.02
2023-05-08T08:27:32.858Z,15.02
2023-05-08T08:30:16.002Z,15.17
2023-05-08T08:32:46.445Z,15.14
2023-05-08T08:35:14.853Z,15.17
2023-05-08T08:37:44.057Z,15.17
2023-05-08T08:40:12.198Z,15.23
2023-05-08T08:42:41.964Z,15.25
2023-05-08T08:45:11.365Z,15.11
2023-05-08T08:47:41.590Z,15.07
2023-05-08T08:50:13.650Z,15.09
2023-05-08T08:52:48.322Z,15.19
2023-05-08T08:55:19.269Z,15.39
2023-05-08T08:57:58.062Z,15.39
2023-05-08T09:00:29.397Z,15.34
2023-05-08T09:02:57.222Z,15.38
2023-05-08T09:05:26.450Z,15.31
2023-05-08T09:07:56.947Z,15.33
2023-05-08T09:10:25.677Z,15.20
2023-05-08T09:12:55.273Z,15.07
2023-05-08T09:15:23.568Z,15.07
2023-05-08T09:17:51.414Z,15.10
2023-05-08T09:20:20.241Z,15.12
2023-05-08T09:22:48.808Z,15.20
2023-05-08T09:25:18.902Z,15.12
2023-05-08T09:27:46.683Z,15.15
2023-05-08T09:30:16.791Z,15.12
2023-05-08T09:32:45.705Z,15.20
2023-05-08T09:35:14.123Z,15.19
2023-05-08T09:37:43.775Z,15.29
2023-05-08T09:40:17.133Z,15.24
2023-05-08T09:42:45.595Z,15.24
2023-05-08T09:45:26.603Z,15.34
2023-05-08T09:47:54.478Z,15.45
2023-05-08T09:50:22.318Z,15.44
2023-05-08T09:52:50.817Z,15.42
2023-05-08T09:55:18.846Z,15.50
2023-05-08T09:57:54.942Z,15.65
2023-05-08T10:00:26.186Z,15.59
2023-05-08T10:02:59.858Z,15.60
2023-05-08T10:05:32.051Z,15.59
2023-05-08T10:08:18.411Z,15.60
2023-05-08T10:10:46.586Z,15.72
2023-05-08T10:13:15.135Z,15.69
2023-05-08T10:15:44.940Z,15.69
2023-05-08T10:18:13.567Z,15.71
2023-05-08T10:20:45.810Z,15.74
2023-05-08T10:23:17.493Z,15.72
2023-05-08T10:25:47.302Z,15.64
2023-05-08T10:28:20.158Z,15.71
2023-05-08T10:30:51.091Z,15.80
2023-05-08T10:33:22.856Z,15.85
2023-05-08T10:35:50.701Z,15.90
2023-05-08T10:38:19.765Z,16.06
2023-05-08T10:40:50.617Z,16.23
2023-05-08T10:43:19.684Z,16.46
2023-05-08T10:45:48.339Z,16.68
2023-05-08T10:48:27.180Z,16.83
2023-05-08T10:51:04.104Z,16.91
2023-05-08T10:53:39.945Z,16.97
2023-05-08T10:56:08.225Z,16.91
2023-05-08T10:58:39.116Z,16.97
2023-05-08T11:01:17.475Z,16.88
2023-05-08T11:03:50.476Z,16.79
2023-05-08T11:06:46.125Z,16.66
2023-05-08T11:09:23.037Z,16.52
2023-05-08T11:12:18.458Z,16.61
2023-05-08T11:14:57.217Z,16.47
2023-05-08T11:17:26.256Z,16.37
2023-05-08T11:20:00.888Z,16.30
2023-05-08T11:22:31.173Z,16.31
2023-05-08T11:25:01.270Z,16.28
2023-05-08T11:27:57.055Z,16.37
2023-05-08T11:30:28.276Z,16.44
2023-05-08T11:33:15.953Z,16.59
2023-05-08T11:35:53.543Z,16.74
2023-05-08T11:38:27.088Z,16.80
2023-05-08T11:41:07.113Z,16.95
2023-05-08T11:44:09.265Z,17.09
2023-05-08T11:46:40.923Z,17.18
2023-05-08T11:49:12.741Z,17.21
2023-05-08T11:51:45.264Z,17.25
2023-05-08T11:54:15.773Z,17.15
2023-05-08T11:56:44.247Z,17.22
2023-05-08T11:59:13.333Z,17.60
2023-05-08T12:01:41.361Z,17.53
2023-05-08T12:04:10.439Z,17.48
2023-05-08T12:06:39.428Z,17.37
2023-05-08T12:09:14.079Z,17.42
2023-05-08T12:11:43.738Z,17.53
2023-05-08T12:14:12.404Z,17.67
2023-05-08T12:16:41.121Z,17.77
2023-05-08T12:19:11.405Z,17.89
2023-05-08T12:21:39.552Z,17.86
2023-05-08T12:24:09.188Z,17.87
2023-05-08T12:26:39.137Z,17.84
2023-05-08T12:29:08.482Z,17.68
2023-05-08T12:31:36.936Z,17.63
2023-05-08T12:34:04.918Z,17.63
2023-05-08T12:36:35.313Z,17.50
2023-05-08T12:39:16.669Z,17.33
2023-05-08T12:41:50.092Z,17.33
2023-05-08T12:44:19.724Z,17.42
2023-05-08T12:46:48.360Z,17.43
2023-05-08T12:49:24.348Z,17.55
2023-05-08T12:51:53.061Z,17.65
2023-05-08T12:54:21.136Z,17.63
2023-05-08T12:56:51.250Z,17.73
2023-05-08T12:59:29.671Z,17.71
2023-05-08T13:01:57.438Z,17.81
2023-05-08T13:04:25.380Z,17.55
2023-05-08T13:06:56.824Z,17.52
2023-05-08T13:09:25.226Z,17.50
2023-05-08T13:11:54.690Z,17.37
2023-05-08T13:14:22.401Z,17.38
2023-05-08T13:16:51.694Z,17.40
2023-05-08T13:19:20.040Z,17.41
2023-05-08T13:21:47.838Z,17.57
2023-05-08T13:24:15.976Z,17.86
2023-05-08T13:26:43.996Z,18.07
2023-05-08T13:29:13.106Z,18.29
2023-05-08T13:31:40.966Z,18.25
2023-05-08T13:34:10.211Z,18.22
2023-05-08T13:36:38.013Z,18.31
2023-05-08T13:39:06.877Z,18.31
2023-05-08T13:41:34.532Z,18.23
2023-05-08T13:44:02.251Z,18.35
2023-05-08T13:46:31.382Z,18.54
2023-05-08T13:48:59.236Z,18.48
2023-05-08T13:51:27.153Z,18.47
2023-05-08T13:53:55.157Z,18.40
2023-05-08T13:56:23.343Z,18.32
2023-05-08T13:58:51.033Z,18.25
2023-05-08T14:01:26.472Z,18.10
2023-05-08T14:03:56.362Z,18.01
2023-05-08T14:06:24.686Z,17.89
2023-05-08T14:08:54.673Z,17.84
2023-05-08T14:11:24.682Z,17.76
2023-05-08T14:13:52.354Z,17.74
2023-05-08T14:16:20.454Z,17.80
2023-05-08T14:18:48.233Z,17.78
2023-05-08T14:21:17.606Z,17.69
2023-05-08T14:23:45.295Z,17.60
2023-05-08T14:26:13.151Z,17.63
2023-05-08T14:28:40.942Z,17.86
2023-05-08T14:31:08.791Z,17.85
2023-05-08T14:33:36.703Z,17.95
2023-05-08T14:36:05.102Z,17.97
2023-05-08T14:38:34.330Z,17.97
2023-05-08T14:41:04.663Z,18.03
2023-05-08T14:43:33.741Z,18.22
2023-05-08T14:46:01.492Z,18.65
2023-05-08T14:48:29.249Z,18.74
2023-05-08T14:50:57.691Z,18.68
2023-05-08T14:53:26.054Z,18.66
2023-05-08T14:55:55.349Z,18.66
2023-05-08T14:58:23.448Z,18.84
2023-05-08T15:00:51.141Z,19.04
2023-05-08T15:03:19.665Z,19.15
2023-05-08T15:05:48.381Z,19.24
2023-05-08T15:08:18.106Z,19.09
2023-05-08T15:10:45.913Z,18.77
2023-05-08T15:13:15.775Z,18.72
2023-05-08T15:15:43.510Z,18.59
2023-05-08T15:18:11.251Z,18.49
2023-05-08T15:20:39.095Z,18.42
2023-05-08T15:23:07.362Z,18.43
2023-05-08T15:25:35.431Z,18.35
2023-05-08T15:28:03.502Z,18.36
2023-05-08T15:30:32.962Z,18.35
2023-05-08T15:33:01.255Z,18.24
2023-05-08T15:35:29.566Z,18.30
2023-05-08T15:37:57.253Z,18.35
2023-05-08T15:40:25.245Z,18.46
2023-05-08T15:42:53.393Z,18.37
2023-05-08T15:45:21.687Z,18.45
2023-05-08T15:47:52.537Z,18.49
2023-05-08T15:50:20.311Z,18.56
2023-05-08T15:52:48.315Z,18.57
2023-05-08T15:55:17.530Z,18.65
2023-05-08T15:57:45.404Z,18.76
2023-05-08T16:00:14.494Z,18.64
2023-05-08T16:02:42.472Z,18.67
2023-05-08T16:05:13.002Z,18.67
2023-05-08T16:07:40.814Z,18.49
2023-05-08T16:10:10.088Z,18.33
2023-05-08T16:12:37.951Z,18.30
2023-05-08T16:15:07.744Z,18.15
2023-05-08T16:17:35.621Z,18.01
2023-05-08T16:20:03.801Z,18.09
2023-05-08T16:22:32.962Z,18.05
2023-05-08T16:25:00.669Z,18.17
2023-05-08T16:27:29.060Z,18.07
2023-05-08T16:29:56.815Z,18.02
2023-05-08T16:32:24.688Z,18.06
2023-05-08T16:34:52.329Z,18.02
2023-05-08T16:37:20.027Z,17.81
2023-05-08T16:39:49.333Z,17.85
2023-05-08T16:42:18.698Z,17.80
2023-05-08T16:44:46.488Z,17.80
2023-05-08T16:47:14.150Z,17.76
2023-05-08T16:49:42.232Z,17.80
2023-05-08T16:52:10.384Z,17.76
2023-05-08T16:54:38.762Z,17.79
2023-05-08T16:57:08.315Z,17.86
2023-05-08T16:59:35.973Z,17.90
2023-05-08T17:02:03.660Z,17.95
2023-05-08T17:04:31.513Z,17.96
2023-05-08T17:06:59.942Z,17.89
2023-05-08T17:09:28.634Z,17.93
2023-05-08T17:11:58.160Z,17.98
2023-05-08T17:14:28.247Z,17.95
2023-05-08T17:16:56.399Z,17.88
2023-05-08T17:19:24.349Z,17.83
2023-05-08T17:21:52.064Z,17.67
2023-05-08T17:24:20.113Z,17.59
2023-05-08T17:26:47.775Z,17.52
2023-05-08T17:29:15.944Z,17.43
2023-05-08T17:31:45.263Z,17.36
2023-05-08T17:34:13.380Z,17.36
2023-05-08T17:36:41.332Z,17.37
2023-05-08T17:39:09.068Z,17.39
2023-05-08T17:41:36.818Z,17.39
2023-05-08T17:44:05.274Z,17.38
2023-05-08T17:46:33.010Z,17.38
2023-05-08T17:49:02.229Z,17.39
2023-05-08T17:51:30.188Z,17.34
2023-05-08T17:53:58.024Z,17.35
2023-05-08T17:56:25.855Z,17.32
2023-05-08T17:58:55.344Z,17.30
2023-05-08T18:01:23.965Z,17.31
2023-05-08T18:03:53.842Z,17.35
2023-05-08T18:06:23.158Z,17.33
2023-05-08T18:08:50.903Z,17.30
2023-05-08T18:11:19.744Z,17.26
2023-05-08T18:13:47.639Z,17.20
2023-05-08T18:16:18.320Z,17.18
2023-05-08T18:18:46.741Z,17.18
2023-05-08T18:21:15.094Z,17.22
2023-05-08T18:23:44.282Z,17.15
2023-05-08T18:26:15.366Z,17.08
2023-05-08T18:28:43.409Z,17.04
2023-05-08T18:31:11.818Z,17.01
2023-05-08T18:33:40.083Z,16.93
2023-05-08T18:36:08.516Z,16.93
2023-05-08T18:38:36.588Z,16.87
2023-05-08T18:41:06.250Z,16.81
2023-05-08T18:43:34.635Z,16.74
2023-05-08T18:46:08.816Z,16.69
2023-05-08T18:48:37.176Z,16.61
2023-05-08T18:51:05.626Z,16.58
2023-05-08T18:53:34.563Z,16.50
2023-05-08T18:56:05.844Z,16.56
2023-05-08T18:58:33.774Z,16.47
2023-05-08T19:01:01.886Z,16.45
2023-05-08T19:03:29.721Z,16.46
2023-05-08T19:05:57.875Z,16.48
2023-05-08T19:08:25.751Z,16.47
2023-05-08T19:10:53.879Z,16.45
2023-05-08T19:13:23.137Z,16.41
2023-05-08T19:15:51.223Z,16.30
2023-05-08T19:18:19.243Z,16.29
2023-05-08T19:20:47.058Z,16.23
2023-05-08T19:23:17.326Z,16.26
2023-05-08T19:25:45.019Z,16.25
2023-05-08T19:28:12.868Z,16.28
2023-05-08T19:30:42.145Z,16.34
2023-05-08T19:33:10.862Z,16.29
2023-05-08T19:35:39.102Z,16.32
2023-05-08T19:38:06.961Z,16.32
2023-05-08T19:40:48.099Z,16.34
2023-05-08T19:43:22.946Z,16.37
2023-05-08T19:45:52.081Z,16.37
2023-05-08T19:48:20.424Z,16.36
2023-05-08T19:50:48.566Z,16.39
2023-05-08T19:53:16.710Z,16.38
2023-05-08T19:55:44.421Z,16.35
2023-05-08T19:58:12.111Z,16.37
2023-05-08T20:00:39.991Z,16.36
2023-05-08T20:03:09.463Z,16.34
2023-05-08T20:05:37.541Z,16.36
2023-05-08T20:08:05.825Z,16.36
2023-05-08T20:10:33.656Z,16.36
2023-05-08T20:13:02.012Z,16.35
2023-05-08T20:15:29.885Z,16.36
2023-05-08T20:17:59.215Z,16.33
2023-05-08T20:20:29.661Z,16.31
2023-05-08T20:22:58.152Z,16.32
2023-05-08T20:25:27.268Z,16.35
2023-05-08T20:27:54.924Z,16.33
2023-05-08T20:30:23.658Z,16.32
2023-05-08T20:32:53.228Z,16.27
2023-05-08T20:35:21.799Z,16.24
2023-05-08T20:37:50.853Z,16.27
2023-05-08T20:40:19.656Z,16.26
2023-05-08T20:42:47.674Z,16.22
2023-05-08T20:45:15.455Z,16.20
2023-05-08T20:47:43.171Z,16.22
2023-05-08T20:50:11.493Z,16.23
2023-05-08T20:52:41.896Z,16.25
2023-05-08T20:55:12.268Z,16.26
2023-05-08T20:57:40.261Z,16.23
2023-05-08T21:00:09.729Z,16.23
2023-05-08T21:02:38.713Z,16.19
2023-05-08T21:05:07.635Z,16.22
2023-05-08T21:07:36.129Z,16.24
2023-05-08T21:10:04.104Z,16.24
2023-05-08T21:12:33.184Z,16.22
2023-05-08T21:15:01.657Z,16.20
2023-05-08T21:17:29.654Z,16.15
2023-05-08T21:19:58.006Z,16.17
2023-05-08T21:22:25.872Z,16.15
2023-05-08T21:24:53.702Z,16.14
2023-05-08T21:27:21.415Z,16.06
2023-05-08T21:29:50.455Z,15.99
2023-05-08T21:32:18.196Z,15.98
2023-05-08T21:34:46.484Z,16.00
2023-05-08T21:37:14.254Z,16.02
2023-05-08T21:39:42.692Z,16.06
2023-05-08T21:42:11.211Z,16.06
2023-05-08T21:44:38.850Z,16.09
2023-05-08T21:47:08.319Z,16.13
2023-05-08T21:49:36.007Z,16.07
2023-05-08T21:52:04.046Z,16.08
2023-05-08T21:54:31.945Z,16.01
2023-05-08T21:57:00.127Z,16.00
2023-05-08T21:59:28.024Z,15.94
2023-05-08T22:01:55.725Z,15.89
2023-05-08T22:04:24.900Z,15.90
2023-05-08T22:06:52.554Z,15.79
2023-05-08T22:09:20.180Z,15.78
2023-05-08T22:11:47.886Z,15.76
2023-05-08T22:14:15.602Z,15.75
2023-05-08T22:16:43.667Z,15.72
2023-05-08T22:19:11.709Z,15.67
2023-05-08T22:21:41.604Z,15.64
2023-05-08T22:24:09.382Z,15.58
2023-05-08T22:26:37.204Z,15.49
2023-05-08T22:29:07.028Z,15.35
2023-05-08T22:31:34.807Z,15.34
2023-05-08T22:34:02.532Z,15.32
2023-05-08T22:36:30.272Z,15.31
2023-05-08T22:39:00.812Z,15.24
2023-05-08T22:41:30.560Z,15.21
2023-05-08T22:43:58.404Z,15.21
2023-05-08T22:46:26.481Z,15.20
2023-05-08T22:48:54.952Z,15.11
2023-05-08T22:51:22.869Z,15.10
2023-05-08T22:53:50.805Z,15.12
2023-05-08T22:56:19.906Z,15.11
2023-05-08T22:58:47.598Z,15.04
2023-05-08T23:01:17.229Z,14.99
2023-05-08T23:03:45.048Z,14.97
2023-05-08T23:06:13.283Z,14.94
2023-05-08T23:08:40.953Z,14.93
2023-05-08T23:11:08.752Z,14.90
2023-05-08T23:13:38.764Z,14.92
2023-05-08T23:16:07.142Z,14.97
2023-05-08T23:18:35.120Z,15.02
2023-05-08T23:21:06.491Z,14.95
2023-05-08T23:23:34.466Z,14.88
2023-05-08T23:26:05.086Z,14.86
2023-05-08T23:28:35.172Z,14.88
2023-05-08T23:31:05.154Z,14.97
2023-05-08T23:33:33.067Z,15.03
2023-05-08T23:36:01.136Z,15.05
2023-05-08T23:38:28.944Z,15.03
2023-05-08T23:40:57.173Z,14.97
2023-05-08T23:43:25.420Z,14.90
2023-05-08T23:45:53.280Z,14.81
2023-05-08T23:48:23.934Z,14.77
2023-05-08T23:50:52.062Z,14.85
2023-05-08T23:53:19.956Z,14.94
2023-05-08T23:55:50.588Z,14.99
2023-05-08T23:58:18.912Z,15.03
